sensor_id;sensor_type;location;lat;lon;timestamp;temperature;humidity
7654;DHT22;3869;48.406;10.774;2023-04-23T00:01:08;13.90;99.90
7654;DHT22;3869;48.406;10.774;2023-04-23T00:03:37;13.80;99.90
7654;DHT22;3869;48.406;10.774;2023-04-23T00:06:09;13.80;99.90
7654;DHT22;3869;48.406;10.774;2023-04-23T00:08:39;13.70;99.90
7654;DHT22;3869;48.406;10.774;2023-04-23T00:11:08;13.70;99.90
7654;DHT22;3869;48.406;10.774;2023-04-23T00:13:37;13.70;99.90
7654;DHT22;3869;48.406;10.774;2023-04-23T00:16:05;13.70;99.90
7654;DHT22;3869;48.406;10.774;2023-04-23T00:18:34;13.70;99.90
7654;DHT22;3869;48.406;10.774;2023-04-23T00:21:03;13.70;99.90
7654;DHT22;3869;48.406;10.774;2023-04-23T00:23:31;13.70;99.90
7654;DHT22;3869;48.406;10.774;2023-04-23T00:25:59;13.70;99.90
7654;DHT22;3869;48.406;10.774;2023-04-23T00:28:27;13.70;99.90
7654;DHT22;3869;48.406;10.774;2023-04-23T00:30:55;13.60;99.90
7654;DHT22;3869;48.406;10.774;2023-04-23T00:33:23;13.60;99.90
7654;DHT22;3869;48.406;10.774;2023-04-23T00:35:51;13.60;99.90
7654;DHT22;3869;48.406;10.774;2023-04-23T00:38:21;13.50;99.90
7654;DHT22;3869;48.406;10.774;2023-04-23T00:40:49;13.40;99.90
7654;DHT22;3869;48.406;10.774;2023-04-23T00:43:17;13.40;99.90
7654;DHT22;3869;48.406;10.774;2023-04-23T00:45:45;13.40;99.90
7654;DHT22;3869;48.406;10.774;2023-04-23T00:48:13;13.40;99.90
7654;DHT22;3869;48.406;10.774;2023-04-23T00:50:42;13.30;99.90
7654;DHT22;3869;48.406;10.774;2023-04-23T00:53:10;13.30;99.90
7654;DHT22;3869;48.406;10.774;2023-04-23T00:55:40;13.30;99.90
7654;DHT22;3869;48.406;10.774;2023-04-23T00:58:08;13.30;99.90
7654;DHT22;3869;48.406;10.774;2023-04-23T01:00:41;13.30;99.90
7654;DHT22;3869;48.406;10.774;2023-04-23T01:03:11;13.30;99.90
7654;DHT22;3869;48.406;10.774;2023-04-23T01:05:41;13.30;99.90
7654;DHT22;3869;48.406;10.774;2023-04-23T01:08:09;13.30;99.90
7654;DHT22;3869;48.406;10.774;2023-04-23T01:10:42;13.30;99.90
7654;DHT22;3869;48.406;10.774;2023-04-23T01:13:12;13.30;99.90
7654;DHT22;3869;48.406;10.774;2023-04-23T01:15:40;13.30;99.90
7654;DHT22;3869;48.406;10.774;2023-04-23T01:18:08;13.20;99.90
7654;DHT22;3869;48.406;10.774;2023-04-23T01:20:36;13.10;99.90
7654;DHT22;3869;48.406;10.774;2023-04-23T01:23:06;13.10;99.90
7654;DHT22;3869;48.406;10.774;2023-04-23T01:25:34;13.10;99.90
7654;DHT22;3869;48.406;10.774;2023-04-23T01:28:03;13.10;99.90
7654;DHT22;3869;48.406;10.774;2023-04-23T01:30:32;13.20;99.90
7654;DHT22;3869;48.406;10.774;2023-04-23T01:33:01;13.20;99.90
7654;DHT22;3869;48.406;10.774;2023-04-23T01:35:30;13.20;99.90
7654;DHT22;3869;48.406;10.774;2023-04-23T01:37:58;13.20;99.90
7654;DHT22;3869;48.406;10.774;2023-04-23T01:40:28;13.20;99.90
7654;DHT22;3869;48.406;10.774;2023-04-23T01:42:57;13.20;99.90
7654;DHT22;3869;48.406;10.774;2023-04-23T01:45:25;13.10;99.90
7654;DHT22;3869;48.406;10.774;2023-04-23T01:47:53;13.10;99.90
7654;DHT22;3869;48.406;10.774;2023-04-23T01:50:22;13.20;99.90
7654;DHT22;3869;48.406;10.774;2023-04-23T01:52:51;13.20;99.90
7654;DHT22;3869;48.406;10.774;2023-04-23T01:55:19;13.20;99.90
7654;DHT22;3869;48.406;10.774;2023-04-23T01:57:50;13.20;99.90
7654;DHT22;3869;48.406;10.774;2023-04-23T02:00:18;13.20;99.90
7654;DHT22;3869;48.406;10.774;2023-04-23T02:02:46;13.20;99.90
7654;DHT22;3869;48.406;10.774;2023-04-23T02:05:16;13.20;99.90
7654;DHT22;3869;48.406;10.774;2023-04-23T02:07:46;13.20;99.90
7654;DHT22;3869;48.406;10.774;2023-04-23T02:10:14;13.20;99.90
7654;DHT22;3869;48.406;10.774;2023-04-23T02:12:43;13.10;99.90
7654;DHT22;3869;48.406;10.774;2023-04-23T02:15:14;13.10;99.90
7654;DHT22;3869;48.406;10.774;2023-04-23T02:17:42;13.20;99.90
7654;DHT22;3869;48.406;10.774;2023-04-23T02:20:11;13.20;99.90
7654;DHT22;3869;48.406;10.774;2023-04-23T02:22:40;13.20;99.90
7654;DHT22;3869;48.406;10.774;2023-04-23T02:25:09;13.20;99.90
7654;DHT22;3869;48.406;10.774;2023-04-23T02:27:37;13.20;99.90
7654;DHT22;3869;48.406;10.774;2023-04-23T02:30:06;13.20;99.90
7654;DHT22;3869;48.406;10.774;2023-04-23T02:32:36;13.20;99.90
7654;DHT22;3869;48.406;10.774;2023-04-23T02:35:05;13.20;99.90
7654;DHT22;3869;48.406;10.774;2023-04-23T02:37:35;13.20;99.90
7654;DHT22;3869;48.406;10.774;2023-04-23T02:40:04;13.20;99.90
7654;DHT22;3869;48.406;10.774;2023-04-23T02:42:32;13.20;99.90
7654;DHT22;3869;48.406;10.774;2023-04-23T02:45:00;13.20;99.90
7654;DHT22;3869;48.406;10.774;2023-04-23T02:47:28;13.20;99.90
7654;DHT22;3869;48.406;10.774;2023-04-23T02:49:58;13.20;99.90
7654;DHT22;3869;48.406;10.774;2023-04-23T02:52:28;13.20;99.90
7654;DHT22;3869;48.406;10.774;2023-04-23T02:54:56;13.20;99.90
7654;DHT22;3869;48.406;10.774;2023-04-23T02:57:24;13.20;99.90
7654;DHT22;3869;48.406;10.774;2023-04-23T02:59:53;13.20;99.90
7654;DHT22;3869;48.406;10.774;2023-04-23T03:02:20;13.10;99.90
7654;DHT22;3869;48.406;10.774;2023-04-23T03:04:49;13.10;99.90
7654;DHT22;3869;48.406;10.774;2023-04-23T03:07:18;13.10;99.90
7654;DHT22;3869;48.406;10.774;2023-04-23T03:09:46;13.10;99.90
7654;DHT22;3869;48.406;10.774;2023-04-23T03:12:14;13.10;99.90
7654;DHT22;3869;48.406;10.774;2023-04-23T03:14:43;13.10;99.90
7654;DHT22;3869;48.406;10.774;2023-04-23T03:17:11;13.10;99.90
7654;DHT22;3869;48.406;10.774;2023-04-23T03:19:39;13.10;99.90
7654;DHT22;3869;48.406;10.774;2023-04-23T03:22:07;13.00;99.90
7654;DHT22;3869;48.406;10.774;2023-04-23T03:24:37;12.90;99.90
7654;DHT22;3869;48.406;10.774;2023-04-23T03:27:05;12.80;99.90
7654;DHT22;3869;48.406;10.774;2023-04-23T03:29:33;12.80;99.90
7654;DHT22;3869;48.406;10.774;2023-04-23T03:32:01;12.70;99.90
7654;DHT22;3869;48.406;10.774;2023-04-23T03:34:29;12.70;99.90
7654;DHT22;3869;48.406;10.774;2023-04-23T03:36:57;12.70;99.90
7654;DHT22;3869;48.406;10.774;2023-04-23T03:39:25;12.60;99.90
7654;DHT22;3869;48.406;10.774;2023-04-23T03:41:54;12.50;99.90
7654;DHT22;3869;48.406;10.774;2023-04-23T03:44:23;12.50;99.90
7654;DHT22;3869;48.406;10.774;2023-04-23T03:46:51;12.40;99.90
7654;DHT22;3869;48.406;10.774;2023-04-23T03:49:19;12.40;99.90
7654;DHT22;3869;48.406;10.774;2023-04-23T03:51:47;12.30;99.90
7654;DHT22;3869;48.406;10.774;2023-04-23T03:54:15;12.30;99.90
7654;DHT22;3869;48.406;10.774;2023-04-23T03:56:44;12.20;99.90
7654;DHT22;3869;48.406;10.774;2023-04-23T03:59:13;12.20;99.90
7654;DHT22;3869;48.406;10.774;2023-04-23T04:01:42;12.10;99.90
7654;DHT22;3869;48.406;10.774;2023-04-23T04:04:10;12.10;99.90
7654;DHT22;3869;48.406;10.774;2023-04-23T04:06:38;12.10;99.90
7654;DHT22;3869;48.406;10.774;2023-04-23T04:09:06;12.10;99.90
7654;DHT22;3869;48.406;10.774;2023-04-23T04:11:34;12.00;99.90
7654;DHT22;3869;48.406;10.774;2023-04-23T04:14:03;12.10;99.90
7654;DHT22;3869;48.406;10.774;2023-04-23T04:16:32;12.00;99.90
7654;DHT22;3869;48.406;10.774;2023-04-23T04:19:00;12.00;99.90
7654;DHT22;3869;48.406;10.774;2023-04-23T04:21:28;11.90;99.90
7654;DHT22;3869;48.406;10.774;2023-04-23T04:23:57;11.90;99.90
7654;DHT22;3869;48.406;10.774;2023-04-23T04:26:27;11.90;99.90
7654;DHT22;3869;48.406;10.774;2023-04-23T04:28:55;11.90;99.90
7654;DHT22;3869;48.406;10.774;2023-04-23T04:31:24;11.90;99.90
7654;DHT22;3869;48.406;10.774;2023-04-23T04:33:55;11.80;99.90
7654;DHT22;3869;48.406;10.774;2023-04-23T04:36:23;11.90;99.90
7654;DHT22;3869;48.406;10.774;2023-04-23T04:38:53;11.80;99.90
7654;DHT22;3869;48.406;10.774;2023-04-23T04:41:23;11.70;99.90
7654;DHT22;3869;48.406;10.774;2023-04-23T04:43:53;11.70;99.90
7654;DHT22;3869;48.406;10.774;2023-04-23T04:46:21;11.80;99.90
7654;DHT22;3869;48.406;10.774;2023-04-23T04:48:49;11.80;99.90
7654;DHT22;3869;48.406;10.774;2023-04-23T04:51:18;11.80;99.90
7654;DHT22;3869;48.406;10.774;2023-04-23T04:53:47;11.80;99.90
7654;DHT22;3869;48.406;10.774;2023-04-23T04:56:15;11.80;99.90
7654;DHT22;3869;48.406;10.774;2023-04-23T04:58:42;11.80;99.90
7654;DHT22;3869;48.406;10.774;2023-04-23T05:01:11;11.80;99.90
7654;DHT22;3869;48.406;10.774;2023-04-23T05:03:39;11.70;99.90
7654;DHT22;3869;48.406;10.774;2023-04-23T05:06:07;11.70;99.90
7654;DHT22;3869;48.406;10.774;2023-04-23T05:08:36;11.70;99.90
7654;DHT22;3869;48.406;10.774;2023-04-23T05:11:04;11.70;99.90
7654;DHT22;3869;48.406;10.774;2023-04-23T05:13:32;11.70;99.90
7654;DHT22;3869;48.406;10.774;2023-04-23T05:16:00;11.70;99.90
7654;DHT22;3869;48.406;10.774;2023-04-23T05:18:28;11.70;99.90
7654;DHT22;3869;48.406;10.774;2023-04-23T05:20:56;11.70;99.90
7654;DHT22;3869;48.406;10.774;2023-04-23T05:23:24;11.70;99.90
7654;DHT22;3869;48.406;10.774;2023-04-23T05:25:53;11.70;99.90
7654;DHT22;3869;48.406;10.774;2023-04-23T05:28:22;11.70;99.90
7654;DHT22;3869;48.406;10.774;2023-04-23T05:30:51;11.70;99.90
7654;DHT22;3869;48.406;10.774;2023-04-23T05:33:18;11.70;99.90
7654;DHT22;3869;48.406;10.774;2023-04-23T05:35:46;11.70;99.90
7654;DHT22;3869;48.406;10.774;2023-04-23T05:38:14;11.70;99.90
7654;DHT22;3869;48.406;10.774;2023-04-23T05:40:42;11.70;99.90
7654;DHT22;3869;48.406;10.774;2023-04-23T05:43:12;11.70;99.90
7654;DHT22;3869;48.406;10.774;2023-04-23T05:45:40;11.70;99.90
7654;DHT22;3869;48.406;10.774;2023-04-23T05:48:08;11.70;99.90
7654;DHT22;3869;48.406;10.774;2023-04-23T05:50:36;11.70;99.90
7654;DHT22;3869;48.406;10.774;2023-04-23T05:53:04;11.80;99.90
7654;DHT22;3869;48.406;10.774;2023-04-23T05:55:33;11.80;99.90
7654;DHT22;3869;48.406;10.774;2023-04-23T05:58:00;11.80;99.90
7654;DHT22;3869;48.406;10.774;2023-04-23T06:00:30;11.80;99.90
7654;DHT22;3869;48.406;10.774;2023-04-23T06:02:58;11.80;99.90
7654;DHT22;3869;48.406;10.774;2023-04-23T06:05:26;11.80;99.90
7654;DHT22;3869;48.406;10.774;2023-04-23T06:07:54;11.80;99.90
7654;DHT22;3869;48.406;10.774;2023-04-23T06:10:22;11.80;99.90
7654;DHT22;3869;48.406;10.774;2023-04-23T06:12:49;11.80;99.90
7654;DHT22;3869;48.406;10.774;2023-04-23T06:15:19;11.90;99.90
7654;DHT22;3869;48.406;10.774;2023-04-23T06:17:51;11.90;99.90
7654;DHT22;3869;48.406;10.774;2023-04-23T06:20:19;11.90;99.90
7654;DHT22;3869;48.406;10.774;2023-04-23T06:22:47;12.00;99.90
7654;DHT22;3869;48.406;10.774;2023-04-23T06:25:15;12.00;99.90
7654;DHT22;3869;48.406;10.774;2023-04-23T06:27:42;12.10;99.90
7654;DHT22;3869;48.406;10.774;2023-04-23T06:30:11;12.10;99.90
7654;DHT22;3869;48.406;10.774;2023-04-23T06:32:39;12.10;99.90
7654;DHT22;3869;48.406;10.774;2023-04-23T06:35:09;12.10;99.90
7654;DHT22;3869;48.406;10.774;2023-04-23T06:37:37;12.10;99.90
7654;DHT22;3869;48.406;10.774;2023-04-23T06:40:05;12.20;99.90
7654;DHT22;3869;48.406;10.774;2023-04-23T06:42:33;12.20;99.90
7654;DHT22;3869;48.406;10.774;2023-04-23T06:45:01;12.10;99.90
7654;DHT22;3869;48.406;10.774;2023-04-23T06:47:32;12.10;99.90
7654;DHT22;3869;48.406;10.774;2023-04-23T06:50:00;12.10;99.90
7654;DHT22;3869;48.406;10.774;2023-04-23T06:52:29;12.20;99.90
7654;DHT22;3869;48.406;10.774;2023-04-23T06:54:57;12.20;99.90
7654;DHT22;3869;48.406;10.774;2023-04-23T06:57:25;12.30;99.90
7654;DHT22;3869;48.406;10.774;2023-04-23T06:59:53;12.30;99.90
7654;DHT22;3869;48.406;10.774;2023-04-23T07:02:21;12.40;99.90
7654;DHT22;3869;48.406;10.774;2023-04-23T07:04:49;12.40;99.90
7654;DHT22;3869;48.406;10.774;2023-04-23T07:07:17;12.50;99.90
7654;DHT22;3869;48.406;10.774;2023-04-23T07:09:47;12.50;99.90
7654;DHT22;3869;48.406;10.774;2023-04-23T07:12:15;12.60;99.90
7654;DHT22;3869;48.406;10.774;2023-04-23T07:14:42;12.60;99.90
7654;DHT22;3869;48.406;10.774;2023-04-23T07:17:10;12.60;99.90
7654;DHT22;3869;48.406;10.774;2023-04-23T07:19:38;12.60;99.90
7654;DHT22;3869;48.406;10.774;2023-04-23T07:22:06;12.70;99.90
7654;DHT22;3869;48.406;10.774;2023-04-23T07:24:34;12.80;99.90
7654;DHT22;3869;48.406;10.774;2023-04-23T07:27:04;12.90;99.90
7654;DHT22;3869;48.406;10.774;2023-04-23T07:29:32;12.90;99.90
7654;DHT22;3869;48.406;10.774;2023-04-23T07:32:00;13.00;99.90
7654;DHT22;3869;48.406;10.774;2023-04-23T07:34:29;13.10;99.90
7654;DHT22;3869;48.406;10.774;2023-04-23T07:36:56;13.20;99.90
7654;DHT22;3869;48.406;10.774;2023-04-23T07:39:25;13.20;99.90
7654;DHT22;3869;48.406;10.774;2023-04-23T07:41:53;13.30;99.90
7654;DHT22;3869;48.406;10.774;2023-04-23T07:44:23;13.30;99.90
7654;DHT22;3869;48.406;10.774;2023-04-23T07:46:51;13.40;99.90
7654;DHT22;3869;48.406;10.774;2023-04-23T07:49:19;13.50;99.90
7654;DHT22;3869;48.406;10.774;2023-04-23T07:51:47;13.60;99.90
7654;DHT22;3869;48.406;10.774;2023-04-23T07:54:15;13.60;99.90
7654;DHT22;3869;48.406;10.774;2023-04-23T07:56:43;13.70;99.90
7654;DHT22;3869;48.406;10.774;2023-04-23T07:59:11;13.70;99.90
7654;DHT22;3869;48.406;10.774;2023-04-23T08:01:41;13.70;99.90
7654;DHT22;3869;48.406;10.774;2023-04-23T08:04:10;13.80;99.90
7654;DHT22;3869;48.406;10.774;2023-04-23T08:06:38;13.80;99.90
7654;DHT22;3869;48.406;10.774;2023-04-23T08:09:06;13.90;99.90
7654;DHT22;3869;48.406;10.774;2023-04-23T08:11:34;13.90;99.90
7654;DHT22;3869;48.406;10.774;2023-04-23T08:14:02;13.90;99.90
7654;DHT22;3869;48.406;10.774;2023-04-23T08:16:30;14.00;99.90
7654;DHT22;3869;48.406;10.774;2023-04-23T08:19:00;14.10;99.90
7654;DHT22;3869;48.406;10.774;2023-04-23T08:21:32;14.20;99.90
7654;DHT22;3869;48.406;10.774;2023-04-23T08:24:00;14.30;99.90
7654;DHT22;3869;48.406;10.774;2023-04-23T08:26:29;14.40;99.90
7654;DHT22;3869;48.406;10.774;2023-04-23T08:28:57;14.40;99.90
7654;DHT22;3869;48.406;10.774;2023-04-23T08:31:26;14.50;99.90
7654;DHT22;3869;48.406;10.774;2023-04-23T08:33:54;14.60;99.90
7654;DHT22;3869;48.406;10.774;2023-04-23T08:36:24;14.70;99.90
7654;DHT22;3869;48.406;10.774;2023-04-23T08:38:53;14.80;99.90
7654;DHT22;3869;48.406;10.774;2023-04-23T08:41:22;14.80;99.90
7654;DHT22;3869;48.406;10.774;2023-04-23T08:43:56;14.90;99.90
7654;DHT22;3869;48.406;10.774;2023-04-23T08:46:30;15.00;99.90
7654;DHT22;3869;48.406;10.774;2023-04-23T08:48:59;15.10;99.90
7654;DHT22;3869;48.406;10.774;2023-04-23T08:51:33;15.30;99.90
7654;DHT22;3869;48.406;10.774;2023-04-23T08:54:06;15.40;99.90
7654;DHT22;3869;48.406;10.774;2023-04-23T08:56:40;15.40;99.90
7654;DHT22;3869;48.406;10.774;2023-04-23T08:59:08;15.50;99.90
7654;DHT22;3869;48.406;10.774;2023-04-23T09:01:36;15.60;99.90
7654;DHT22;3869;48.406;10.774;2023-04-23T09:04:04;15.70;99.90
7654;DHT22;3869;48.406;10.774;2023-04-23T09:06:35;15.70;99.90
7654;DHT22;3869;48.406;10.774;2023-04-23T09:09:03;15.80;99.90
7654;DHT22;3869;48.406;10.774;2023-04-23T09:11:35;15.80;99.90
7654;DHT22;3869;48.406;10.774;2023-04-23T09:14:03;15.90;99.90
7654;DHT22;3869;48.406;10.774;2023-04-23T09:16:32;15.90;99.90
7654;DHT22;3869;48.406;10.774;2023-04-23T09:19:00;15.90;99.90
7654;DHT22;3869;48.406;10.774;2023-04-23T09:21:28;15.90;99.90
7654;DHT22;3869;48.406;10.774;2023-04-23T09:23:58;15.80;99.90
7654;DHT22;3869;48.406;10.774;2023-04-23T09:26:31;15.90;99.90
7654;DHT22;3869;48.406;10.774;2023-04-23T09:28:59;15.90;99.90
7654;DHT22;3869;48.406;10.774;2023-04-23T09:31:26;15.90;99.90
7654;DHT22;3869;48.406;10.774;2023-04-23T09:33:54;16.00;99.90
7654;DHT22;3869;48.406;10.774;2023-04-23T09:36:23;15.90;99.90
7654;DHT22;3869;48.406;10.774;2023-04-23T09:38:55;16.00;99.90
7654;DHT22;3869;48.406;10.774;2023-04-23T09:41:25;16.10;99.90
7654;DHT22;3869;48.406;10.774;2023-04-23T09:43:53;16.10;99.90
7654;DHT22;3869;48.406;10.774;2023-04-23T09:46:35;16.20;99.90
7654;DHT22;3869;48.406;10.774;2023-04-23T09:49:04;16.30;99.90
7654;DHT22;3869;48.406;10.774;2023-04-23T09:51:35;16.40;99.90
7654;DHT22;3869;48.406;10.774;2023-04-23T09:54:03;16.40;99.90
7654;DHT22;3869;48.406;10.774;2023-04-23T09:56:35;16.50;99.90
7654;DHT22;3869;48.406;10.774;2023-04-23T09:59:18;16.60;99.90
7654;DHT22;3869;48.406;10.774;2023-04-23T10:02:01;16.60;99.90
7654;DHT22;3869;48.406;10.774;2023-04-23T10:04:29;16.50;99.90
7654;DHT22;3869;48.406;10.774;2023-04-23T10:06:59;16.50;99.90
7654;DHT22;3869;48.406;10.774;2023-04-23T10:09:43;16.50;99.90
7654;DHT22;3869;48.406;10.774;2023-04-23T10:12:13;16.60;99.90
7654;DHT22;3869;48.406;10.774;2023-04-23T10:14:45;16.70;99.90
7654;DHT22;3869;48.406;10.774;2023-04-23T10:17:15;16.80;99.90
7654;DHT22;3869;48.406;10.774;2023-04-23T10:19:43;16.90;99.90
7654;DHT22;3869;48.406;10.774;2023-04-23T10:22:13;17.00;99.90
7654;DHT22;3869;48.406;10.774;2023-04-23T10:24:49;17.10;99.90
7654;DHT22;3869;48.406;10.774;2023-04-23T10:27:21;17.20;99.90
7654;DHT22;3869;48.406;10.774;2023-04-23T10:30:13;17.20;99.90
7654;DHT22;3869;48.406;10.774;2023-04-23T10:32:41;17.20;99.90
7654;DHT22;3869;48.406;10.774;2023-04-23T10:35:10;17.10;99.90
7654;DHT22;3869;48.406;10.774;2023-04-23T10:37:38;17.00;99.90
7654;DHT22;3869;48.406;10.774;2023-04-23T10:40:09;16.90;99.90
7654;DHT22;3869;48.406;10.774;2023-04-23T10:42:42;16.90;99.90
7654;DHT22;3869;48.406;10.774;2023-04-23T10:45:15;17.10;99.90
7654;DHT22;3869;48.406;10.774;2023-04-23T10:47:46;17.20;99.90
7654;DHT22;3869;48.406;10.774;2023-04-23T10:50:19;17.20;99.90
7654;DHT22;3869;48.406;10.774;2023-04-23T10:52:48;17.30;99.90
7654;DHT22;3869;48.406;10.774;2023-04-23T10:55:20;17.40;99.90
7654;DHT22;3869;48.406;10.774;2023-04-23T10:58:01;17.50;99.90
7654;DHT22;3869;48.406;10.774;2023-04-23T11:00:43;17.60;99.90
7654;DHT22;3869;48.406;10.774;2023-04-23T11:03:31;17.60;99.90
7654;DHT22;3869;48.406;10.774;2023-04-23T11:06:12;17.70;99.90
7654;DHT22;3869;48.406;10.774;2023-04-23T11:08:50;17.90;99.90
7654;DHT22;3869;48.406;10.774;2023-04-23T11:11:26;17.90;99.90
7654;DHT22;3869;48.406;10.774;2023-04-23T11:14:11;17.90;99.90
7654;DHT22;3869;48.406;10.774;2023-04-23T11:16:41;17.80;99.90
7654;DHT22;3869;48.406;10.774;2023-04-23T11:19:10;17.80;99.90
7654;DHT22;3869;48.406;10.774;2023-04-23T11:21:58;17.70;99.90
7654;DHT22;3869;48.406;10.774;2023-04-23T11:24:27;17.70;99.90
7654;DHT22;3869;48.406;10.774;2023-04-23T11:26:56;17.70;99.90
7654;DHT22;3869;48.406;10.774;2023-04-23T11:29:27;17.80;99.90
7654;DHT22;3869;48.406;10.774;2023-04-23T11:31:55;17.90;99.90
7654;DHT22;3869;48.406;10.774;2023-04-23T11:34:29;18.00;99.90
7654;DHT22;3869;48.406;10.774;2023-04-23T11:36:59;18.10;99.90
7654;DHT22;3869;48.406;10.774;2023-04-23T11:39:27;18.10;99.90
7654;DHT22;3869;48.406;10.774;2023-04-23T11:41:56;17.90;99.90
7654;DHT22;3869;48.406;10.774;2023-04-23T11:44:26;17.60;99.90
7654;DHT22;3869;48.406;10.774;2023-04-23T11:46:54;17.40;99.90
7654;DHT22;3869;48.406;10.774;2023-04-23T11:49:24;17.50;99.90
7654;DHT22;3869;48.406;10.774;2023-04-23T11:51:52;17.50;99.90
7654;DHT22;3869;48.406;10.774;2023-04-23T11:54:24;17.60;99.90
7654;DHT22;3869;48.406;10.774;2023-04-23T11:56:54;17.60;99.90
7654;DHT22;3869;48.406;10.774;2023-04-23T11:59:23;17.70;99.90
7654;DHT22;3869;48.406;10.774;2023-04-23T12:01:54;17.60;99.90
7654;DHT22;3869;48.406;10.774;2023-04-23T12:04:23;17.60;99.90
7654;DHT22;3869;48.406;10.774;2023-04-23T12:06:53;17.80;99.90
7654;DHT22;3869;48.406;10.774;2023-04-23T12:09:23;17.90;99.90
7654;DHT22;3869;48.406;10.774;2023-04-23T12:11:51;18.00;99.90
7654;DHT22;3869;48.406;10.774;2023-04-23T12:14:24;18.00;99.90
7654;DHT22;3869;48.406;10.774;2023-04-23T12:16:56;18.00;99.90
7654;DHT22;3869;48.406;10.774;2023-04-23T12:19:28;17.90;99.90
7654;DHT22;3869;48.406;10.774;2023-04-23T12:21:59;17.80;99.90
7654;DHT22;3869;48.406;10.774;2023-04-23T12:24:29;17.90;99.90
7654;DHT22;3869;48.406;10.774;2023-04-23T12:26:58;17.90;99.90
7654;DHT22;3869;48.406;10.774;2023-04-23T12:29:29;17.90;99.90
7654;DHT22;3869;48.406;10.774;2023-04-23T12:31:59;17.70;99.90
7654;DHT22;3869;48.406;10.774;2023-04-23T12:34:27;17.40;99.90
7654;DHT22;3869;48.406;10.774;2023-04-23T12:36:55;17.10;99.90
7654;DHT22;3869;48.406;10.774;2023-04-23T12:39:25;17.10;99.90
7654;DHT22;3869;48.406;10.774;2023-04-23T12:41:55;17.20;99.90
7654;DHT22;3869;48.406;10.774;2023-04-23T12:44:25;17.30;99.90
7654;DHT22;3869;48.406;10.774;2023-04-23T12:46:54;17.40;99.90
7654;DHT22;3869;48.406;10.774;2023-04-23T12:49:25;17.50;99.90
7654;DHT22;3869;48.406;10.774;2023-04-23T12:51:54;17.60;99.90
7654;DHT22;3869;48.406;10.774;2023-04-23T12:54:27;17.80;99.90
7654;DHT22;3869;48.406;10.774;2023-04-23T12:56:57;18.00;99.90
7654;DHT22;3869;48.406;10.774;2023-04-23T12:59:25;18.20;99.90
7654;DHT22;3869;48.406;10.774;2023-04-23T13:01:53;18.30;99.90
7654;DHT22;3869;48.406;10.774;2023-04-23T13:04:21;18.50;99.90
7654;DHT22;3869;48.406;10.774;2023-04-23T13:06:51;18.60;99.90
7654;DHT22;3869;48.406;10.774;2023-04-23T13:09:20;18.80;99.90
7654;DHT22;3869;48.406;10.774;2023-04-23T13:11:52;18.90;99.90
7654;DHT22;3869;48.406;10.774;2023-04-23T13:14:20;19.00;99.90
7654;DHT22;3869;48.406;10.774;2023-04-23T13:16:48;19.10;99.90
7654;DHT22;3869;48.406;10.774;2023-04-23T13:19:16;19.00;99.90
7654;DHT22;3869;48.406;10.774;2023-04-23T13:21:44;19.00;99.90
7654;DHT22;3869;48.406;10.774;2023-04-23T13:24:14;18.90;99.90
7654;DHT22;3869;48.406;10.774;2023-04-23T13:26:42;19.10;99.90
7654;DHT22;3869;48.406;10.774;2023-04-23T13:29:10;19.30;99.90
7654;DHT22;3869;48.406;10.774;2023-04-23T13:31:38;19.40;99.90
7654;DHT22;3869;48.406;10.774;2023-04-23T13:34:06;19.60;99.90
7654;DHT22;3869;48.406;10.774;2023-04-23T13:36:34;19.70;99.90
7654;DHT22;3869;48.406;10.774;2023-04-23T13:39:02;19.60;99.90
7654;DHT22;3869;48.406;10.774;2023-04-23T13:41:33;19.60;99.90
7654;DHT22;3869;48.406;10.774;2023-04-23T13:44:01;19.40;99.90
7654;DHT22;3869;48.406;10.774;2023-04-23T13:46:29;19.50;99.90
7654;DHT22;3869;48.406;10.774;2023-04-23T13:48:57;19.50;99.90
7654;DHT22;3869;48.406;10.774;2023-04-23T13:51:25;19.30;99.90
7654;DHT22;3869;48.406;10.774;2023-04-23T13:54:02;19.10;99.90
7654;DHT22;3869;48.406;10.774;2023-04-23T13:56:30;19.10;99.90
7654;DHT22;3869;48.406;10.774;2023-04-23T13:59:00;19.00;99.90
7654;DHT22;3869;48.406;10.774;2023-04-23T14:01:32;19.00;99.90
7654;DHT22;3869;48.406;10.774;2023-04-23T14:04:00;19.10;99.90
7654;DHT22;3869;48.406;10.774;2023-04-23T14:06:30;19.10;99.90
7654;DHT22;3869;48.406;10.774;2023-04-23T14:08:58;19.20;99.90
7654;DHT22;3869;48.406;10.774;2023-04-23T14:11:26;19.20;99.90
7654;DHT22;3869;48.406;10.774;2023-04-23T14:13:54;19.30;99.90
7654;DHT22;3869;48.406;10.774;2023-04-23T14:16:23;19.30;99.90
7654;DHT22;3869;48.406;10.774;2023-04-23T14:18:51;19.30;99.90
7654;DHT22;3869;48.406;10.774;2023-04-23T14:21:20;19.30;99.90
7654;DHT22;3869;48.406;10.774;2023-04-23T14:23:50;19.10;99.90
7654;DHT22;3869;48.406;10.774;2023-04-23T14:26:27;19.10;99.90
7654;DHT22;3869;48.406;10.774;2023-04-23T14:29:18;19.20;99.90
7654;DHT22;3869;48.406;10.774;2023-04-23T14:31:51;19.20;99.90
7654;DHT22;3869;48.406;10.774;2023-04-23T14:34:19;19.20;99.90
7654;DHT22;3869;48.406;10.774;2023-04-23T14:36:47;19.10;99.90
7654;DHT22;3869;48.406;10.774;2023-04-23T14:39:15;19.00;99.90
7654;DHT22;3869;48.406;10.774;2023-04-23T14:41:43;18.70;99.90
7654;DHT22;3869;48.406;10.774;2023-04-23T14:44:11;18.50;99.90
7654;DHT22;3869;48.406;10.774;2023-04-23T14:46:39;18.40;99.90
7654;DHT22;3869;48.406;10.774;2023-04-23T14:49:09;18.50;99.90
7654;DHT22;3869;48.406;10.774;2023-04-23T14:51:37;18.30;99.90
7654;DHT22;3869;48.406;10.774;2023-04-23T14:54:05;18.40;99.90
7654;DHT22;3869;48.406;10.774;2023-04-23T14:56:33;18.30;99.90
7654;DHT22;3869;48.406;10.774;2023-04-23T14:59:01;18.10;99.90
7654;DHT22;3869;48.406;10.774;2023-04-23T15:01:29;18.00;99.90
7654;DHT22;3869;48.406;10.774;2023-04-23T15:03:57;17.90;99.90
7654;DHT22;3869;48.406;10.774;2023-04-23T15:06:26;18.00;99.90
7654;DHT22;3869;48.406;10.774;2023-04-23T15:08:54;17.90;99.90
7654;DHT22;3869;48.406;10.774;2023-04-23T15:11:22;17.90;99.90
7654;DHT22;3869;48.406;10.774;2023-04-23T15:13:55;18.10;99.90
7654;DHT22;3869;48.406;10.774;2023-04-23T15:16:30;18.20;99.90
7654;DHT22;3869;48.406;10.774;2023-04-23T15:19:04;18.20;99.90
7654;DHT22;3869;48.406;10.774;2023-04-23T15:21:34;18.20;99.90
7654;DHT22;3869;48.406;10.774;2023-04-23T15:24:02;18.30;99.90
7654;DHT22;3869;48.406;10.774;2023-04-23T15:26:30;18.30;99.90
7654;DHT22;3869;48.406;10.774;2023-04-23T15:28:59;18.50;99.90
7654;DHT22;3869;48.406;10.774;2023-04-23T15:31:27;18.50;99.90
7654;DHT22;3869;48.406;10.774;2023-04-23T15:33:55;18.60;99.90
7654;DHT22;3869;48.406;10.774;2023-04-23T15:36:23;18.70;99.90
7654;DHT22;3869;48.406;10.774;2023-04-23T15:38:52;18.80;99.90
7654;DHT22;3869;48.406;10.774;2023-04-23T15:41:20;18.80;99.90
7654;DHT22;3869;48.406;10.774;2023-04-23T15:43:48;18.80;99.90
7654;DHT22;3869;48.406;10.774;2023-04-23T15:46:19;18.70;99.90
7654;DHT22;3869;48.406;10.774;2023-04-23T15:48:47;18.70;99.90
7654;DHT22;3869;48.406;10.774;2023-04-23T15:51:15;18.50;99.90
7654;DHT22;3869;48.406;10.774;2023-04-23T15:53:43;18.50;99.90
7654;DHT22;3869;48.406;10.774;2023-04-23T15:56:12;18.50;99.90
7654;DHT22;3869;48.406;10.774;2023-04-23T15:58:40;18.50;99.90